createdAt,value
2023-05-11T00:00:40.607Z,48.15
2023-05-11T00:03:07.964Z,47.79
2023-05-11T00:05:35.479Z,47.80
2023-05-11T00:08:02.908Z,48.09
2023-05-11T00:10:30.692Z,48.46
2023-05-11T00:12:58.282Z,48.63
2023-05-11T00:15:25.835Z,48.50
2023-05-11T00:17:53.210Z,48.40
2023-05-11T00:20:21.903Z,49.05
2023-05-11T00:22:49.519Z,49.00
2023-05-11T00:25:16.950Z,48.66
2023-05-11T00:27:46.279Z,48.74
2023-05-11T00:30:17.323Z,49.37
2023-05-11T00:32:45.662Z,48.83
2023-05-11T00:35:13.153Z,49.39
2023-05-11T00:37:41.470Z,49.20
2023-05-11T00:40:09.195Z,49.45
2023-05-11T00:42:36.574Z,49.76
2023-05-11T00:45:04.420Z,49.66
2023-05-11T00:47:32.151Z,49.64
2023-05-11T00:49:59.699Z,49.58
2023-05-11T00:52:27.696Z,49.37
2023-05-11T00:54:55.019Z,49.59
2023-05-11T00:57:22.378Z,49.53
2023-05-11T00:59:49.833Z,49.46
2023-05-11T01:02:18.025Z,49.91
2023-05-11T01:04:45.879Z,49.58
2023-05-11T01:07:16.343Z,49.95
2023-05-11T01:10:04.089Z,49.81
2023-05-11T01:12:50.893Z,50.06
2023-05-11T01:15:41.547Z,50.09
2023-05-11T01:18:38.304Z,50.23
2023-05-11T01:21:14.469Z,50.18
2023-05-11T01:24:12.985Z,50.46
2023-05-11T01:26:55.312Z,50.35
2023-05-11T01:29:44.092Z,50.32
2023-05-11T01:32:31.363Z,50.67
2023-05-11T01:35:06.535Z,50.82
2023-05-11T01:37:35.201Z,50.85
2023-05-11T01:40:10.938Z,51.00
2023-05-11T01:42:55.110Z,50.89
2023-05-11T01:45:24.730Z,50.99
2023-05-11T01:47:53.628Z,51.11
2023-05-11T01:50:24.740Z,51.08
2023-05-11T01:52:53.791Z,50.85
2023-05-11T01:55:24.033Z,51.30
2023-05-11T01:57:54.794Z,51.05
2023-05-11T02:00:23.759Z,51.20
2023-05-11T02:02:56.051Z,51.39
2023-05-11T02:05:24.934Z,51.42
2023-05-11T02:07:54.685Z,51.08
2023-05-11T02:10:25.644Z,51.17
2023-05-11T02:12:54.203Z,50.94
2023-05-11T02:15:24.234Z,51.24
2023-05-11T02:17:54.429Z,51.72
2023-05-11T02:20:22.607Z,51.65
2023-05-11T02:22:50.901Z,51.53
2023-05-11T02:25:18.860Z,51.73
2023-05-11T02:27:47.130Z,51.76
2023-05-11T02:30:14.817Z,52.15
2023-05-11T02:32:51.751Z,51.93
2023-05-11T02:35:46.191Z,52.12
2023-05-11T02:38:15.611Z,51.96
2023-05-11T02:40:47.593Z,51.86
2023-05-11T02:43:24.894Z,52.03
2023-05-11T02:46:02.715Z,51.74
2023-05-11T02:48:37.897Z,52.01
2023-05-11T02:51:07.892Z,52.11
2023-05-11T02:53:43.176Z,52.04
2023-05-11T02:56:10.849Z,52.15
2023-05-11T02:58:38.495Z,52.54
2023-05-11T03:01:15.741Z,52.17
2023-05-11T03:03:43.387Z,52.52
2023-05-11T03:06:10.910Z,52.53
2023-05-11T03:08:38.535Z,52.08
2023-05-11T03:11:06.626Z,52.67
2023-05-11T03:13:34.886Z,52.70
2023-05-11T03:16:06.249Z,52.45
2023-05-11T03:18:35.323Z,52.56
2023-05-11T03:21:03.163Z,52.41
2023-05-11T03:23:31.896Z,52.30
2023-05-11T03:26:00.516Z,52.73
2023-05-11T03:28:30.115Z,52.38
2023-05-11T03:31:07.299Z,52.47
2023-05-11T03:33:34.871Z,52.76
2023-05-11T03:36:04.742Z,52.30
2023-05-11T03:38:36.281Z,52.21
2023-05-11T03:41:03.726Z,52.31
2023-05-11T03:43:36.339Z,52.24
2023-05-11T03:46:05.472Z,52.41
2023-05-11T03:48:33.552Z,52.74
2023-05-11T03:51:01.268Z,52.52
2023-05-11T03:53:28.768Z,52.47
2023-05-11T03:55:56.363Z,52.70
2023-05-11T03:58:24.086Z,52.11
2023-05-11T04:00:51.964Z,52.23
2023-05-11T04:03:19.500Z,52.68
2023-05-11T04:05:47.147Z,52.05
2023-05-11T04:08:14.810Z,51.85
2023-05-11T04:10:42.286Z,52.15
2023-05-11T04:13:09.519Z,52.03
2023-05-11T04:15:37.891Z,51.84
2023-05-11T04:18:05.332Z,51.97
2023-05-11T04:20:32.694Z,51.69
2023-05-11T04:22:59.951Z,51.95
2023-05-11T04:25:27.702Z,51.43
2023-05-11T04:27:55.107Z,51.68
2023-05-11T04:30:22.701Z,51.71
2023-05-11T04:32:50.022Z,51.83
2023-05-11T04:35:17.489Z,51.64
2023-05-11T04:37:44.827Z,51.69
2023-05-11T04:40:13.264Z,51.46
2023-05-11T04:42:42.348Z,51.50
2023-05-11T04:45:15.258Z,51.62
2023-05-11T04:47:43.379Z,51.80
2023-05-11T04:50:11.592Z,51.48
2023-05-11T04:52:38.805Z,51.50
2023-05-11T04:55:06.542Z,51.34
2023-05-11T04:57:34.909Z,51.54
2023-05-11T05:00:04.229Z,52.07
2023-05-11T05:02:32.792Z,51.37
2023-05-11T05:05:00.976Z,51.34
2023-05-11T05:07:28.279Z,51.45
2023-05-11T05:09:56.638Z,51.30
2023-05-11T05:12:24.243Z,51.36
2023-05-11T05:14:51.821Z,50.96
2023-05-11T05:17:19.297Z,50.36
2023-05-11T05:19:46.676Z,50.57
2023-05-11T05:22:14.128Z,50.70
2023-05-11T05:24:41.587Z,50.82
2023-05-11T05:27:09.519Z,51.11
2023-05-11T05:29:36.906Z,50.82
2023-05-11T05:32:04.567Z,50.42
2023-05-11T05:34:31.919Z,50.46
2023-05-11T05:36:59.243Z,50.01
2023-05-11T05:39:27.521Z,50.29
2023-05-11T05:41:54.925Z,49.67
2023-05-11T05:44:23.005Z,50.38
2023-05-11T05:46:50.918Z,49.81
2023-05-11T05:49:18.288Z,49.38
2023-05-11T05:51:45.701Z,49.32
2023-05-11T05:54:13.670Z,49.75
2023-05-11T05:56:41.087Z,49.55
2023-05-11T05:59:10.184Z,49.34
2023-05-11T06:01:41.669Z,49.06
2023-05-11T06:04:09.137Z,48.74
2023-05-11T06:06:36.691Z,48.03
2023-05-11T06:09:04.098Z,48.28
2023-05-11T06:11:31.412Z,48.12
2023-05-11T06:13:59.185Z,47.82
2023-05-11T06:16:28.114Z,47.77
2023-05-11T06:18:55.531Z,47.56
2023-05-11T06:21:23.091Z,46.91
2023-05-11T06:23:50.535Z,46.59
2023-05-11T06:26:17.957Z,46.96
2023-05-11T06:28:45.429Z,46.45
2023-05-11T06:31:15.841Z,46.47
2023-05-11T06:33:44.354Z,45.56
2023-05-11T06:36:20.217Z,44.84
2023-05-11T06:38:47.550Z,44.86
2023-05-11T06:41:15.014Z,44.24
2023-05-11T06:43:42.506Z,43.70
2023-05-11T06:46:22.387Z,44.25
2023-05-11T06:48:50.621Z,43.90
2023-05-11T06:51:18.860Z,43.51
2023-05-11T06:53:46.144Z,42.84
2023-05-11T06:56:13.431Z,42.52
2023-05-11T06:58:42.616Z,41.77
2023-05-11T07:01:11.356Z,42.34
2023-05-11T07:03:38.755Z,41.28
2023-05-11T07:06:06.283Z,40.79
2023-05-11T07:08:34.212Z,40.23
2023-05-11T07:11:01.750Z,40.69
2023-05-11T07:13:29.120Z,40.28
2023-05-11T07:15:57.795Z,40.64
2023-05-11T07:18:25.218Z,40.27
2023-05-11T07:20:52.620Z,38.85
2023-05-11T07:23:20.028Z,38.04
2023-05-11T07:25:47.257Z,37.37
2023-05-11T07:28:14.948Z,37.30
2023-05-11T07:30:42.212Z,37.29
2023-05-11T07:33:09.772Z,39.23
2023-05-11T07:35:37.101Z,38.05
2023-05-11T07:38:06.357Z,37.15
2023-05-11T07:40:34.098Z,36.51
2023-05-11T07:43:02.093Z,36.13
2023-05-11T07:45:29.332Z,36.30
2023-05-11T07:47:56.513Z,35.82
2023-05-11T07:50:24.544Z,35.42
2023-05-11T07:52:52.399Z,35.43
2023-05-11T07:55:20.751Z,35.04
2023-05-11T07:57:48.305Z,34.29
2023-05-11T08:00:16.311Z,34.61
2023-05-11T08:02:44.269Z,34.34
2023-05-11T08:05:11.827Z,34.89
2023-05-11T08:07:41.536Z,34.24
2023-05-11T08:10:09.691Z,33.97
2023-05-11T08:12:37.511Z,34.21
2023-05-11T08:15:06.182Z,33.82
2023-05-11T08:17:33.672Z,33.54
2023-05-11T08:20:00.966Z,33.44
2023-05-11T08:22:28.469Z,33.56
2023-05-11T08:24:55.735Z,32.89
2023-05-11T08:27:23.215Z,32.53
2023-05-11T08:29:51.639Z,32.33
2023-05-11T08:32:19.221Z,32.10
2023-05-11T08:34:47.023Z,31.46
2023-05-11T08:37:14.579Z,31.83
2023-05-11T08:39:46.639Z,32.41
2023-05-11T08:42:17.914Z,32.08
2023-05-11T08:44:45.117Z,32.68
2023-05-11T08:49:43.787Z,30.76
2023-05-11T08:52:12.969Z,30.28
2023-05-11T08:54:40.352Z,30.42
2023-05-11T08:57:08.981Z,29.98
2023-05-11T08:59:36.801Z,30.62
2023-05-11T09:02:06.207Z,30.30
2023-05-11T09:04:34.688Z,30.98
2023-05-11T09:07:02.557Z,30.04
2023-05-11T09:09:29.872Z,30.10
2023-05-11T09:11:57.736Z,30.95
2023-05-11T09:14:27.614Z,30.78
2023-05-11T09:16:55.268Z,30.61
2023-05-11T09:19:22.621Z,30.68
2023-05-11T09:21:52.406Z,30.46
2023-05-11T09:24:21.479Z,29.72
2023-05-11T09:26:49.683Z,29.95
2023-05-11T09:29:20.860Z,29.91
2023-05-11T09:31:48.767Z,30.42
2023-05-11T09:34:20.603Z,29.82
2023-05-11T09:36:53.424Z,29.45
2023-05-11T09:39:41.664Z,29.00
2023-05-11T09:42:18.317Z,29.45
2023-05-11T09:44:47.119Z,29.57
2023-05-11T09:47:17.811Z,29.64
2023-05-11T09:49:46.073Z,29.26
2023-05-11T09:52:15.947Z,28.95
2023-05-11T09:54:45.359Z,29.22
2023-05-11T09:57:30.840Z,29.66
2023-05-11T09:59:59.991Z,29.62
2023-05-11T10:02:30.019Z,28.87
2023-05-11T10:05:01.358Z,29.24
2023-05-11T10:07:34.162Z,28.46
2023-05-11T10:10:06.494Z,28.52
2023-05-11T10:12:38.430Z,28.55
2023-05-11T10:15:08.450Z,28.78
2023-05-11T10:17:37.161Z,28.18
2023-05-11T10:20:06.844Z,28.01
2023-05-11T10:22:34.400Z,27.37
2023-05-11T10:25:03.248Z,27.70
2023-05-11T10:27:32.265Z,27.84
2023-05-11T10:30:00.173Z,27.98
2023-05-11T10:32:28.810Z,27.81
2023-05-11T10:34:57.130Z,27.86
2023-05-11T10:37:25.693Z,27.50
2023-05-11T10:39:53.030Z,28.18
2023-05-11T10:42:56.812Z,28.31
2023-05-11T10:45:48.937Z,27.98
2023-05-11T10:48:36.993Z,27.90
2023-05-11T10:51:14.171Z,28.04
2023-05-11T10:53:54.888Z,27.95
2023-05-11T10:56:53.271Z,27.72
2023-05-11T11:00:07.563Z,28.31
2023-05-11T11:02:35.265Z,27.73
2023-05-11T11:05:06.107Z,27.22
2023-05-11T11:07:59.275Z,27.47
2023-05-11T11:10:51.900Z,27.64
2023-05-11T11:13:20.460Z,28.70
2023-05-11T11:15:56.409Z,27.70
2023-05-11T11:18:28.314Z,27.39
2023-05-11T11:20:57.932Z,27.94
2023-05-11T11:23:40.644Z,28.08
2023-05-11T11:26:10.251Z,27.33
2023-05-11T11:29:00.915Z,28.94
2023-05-11T11:31:32.643Z,28.00
2023-05-11T11:34:40.469Z,27.97
2023-05-11T11:37:09.157Z,28.16
2023-05-11T11:39:51.469Z,28.74
2023-05-11T11:42:40.174Z,28.33
2023-05-11T11:45:28.574Z,28.62
2023-05-11T11:48:15.943Z,28.11
2023-05-11T11:50:48.343Z,28.10
2023-05-11T11:53:43.997Z,27.56
2023-05-11T11:56:17.392Z,28.13
2023-05-11T11:58:44.825Z,27.92
2023-05-11T12:01:21.643Z,28.10
2023-05-11T12:04:04.742Z,27.22
2023-05-11T12:06:40.193Z,27.65
2023-05-11T12:09:08.890Z,27.20
2023-05-11T12:11:37.845Z,27.03
2023-05-11T12:14:05.343Z,27.60
2023-05-11T12:16:32.861Z,27.57
2023-05-11T12:19:02.169Z,26.48
2023-05-11T12:21:34.181Z,27.81
2023-05-11T12:24:03.294Z,27.72
2023-05-11T12:26:32.325Z,26.84
2023-05-11T12:29:14.147Z,26.84
2023-05-11T12:31:43.130Z,26.97
2023-05-11T12:34:17.599Z,27.29
2023-05-11T12:36:48.720Z,27.37
2023-05-11T12:39:27.456Z,27.21
2023-05-11T12:41:56.675Z,27.03
2023-05-11T12:44:26.308Z,27.09
2023-05-11T12:46:54.441Z,27.30
2023-05-11T12:49:26.418Z,27.73
2023-05-11T12:52:01.501Z,27.46
2023-05-11T12:54:34.145Z,27.63
2023-05-11T12:57:03.127Z,27.44
2023-05-11T12:59:41.146Z,27.65
2023-05-11T13:02:10.061Z,27.84
2023-05-11T13:04:38.942Z,27.84
2023-05-11T13:07:06.449Z,27.58
2023-05-11T13:09:34.053Z,26.89
2023-05-11T13:12:11.129Z,27.05
2023-05-11T13:14:39.617Z,26.58
2023-05-11T13:17:07.071Z,27.08
2023-05-11T13:19:35.071Z,27.33
2023-05-11T13:22:02.360Z,27.09
2023-05-11T13:24:29.837Z,27.32
2023-05-11T13:26:58.977Z,27.14
2023-05-11T13:29:27.312Z,27.24
2023-05-11T13:31:54.941Z,26.85
2023-05-11T13:34:22.600Z,26.98
2023-05-11T13:36:50.560Z,26.87
2023-05-11T13:39:18.048Z,27.21
2023-05-11T13:41:46.196Z,27.43
2023-05-11T13:44:13.746Z,27.37
2023-05-11T13:46:41.200Z,27.48
2023-05-11T13:49:08.808Z,27.05
2023-05-11T13:51:36.361Z,27.75
2023-05-11T13:54:04.080Z,27.45
2023-05-11T13:56:31.954Z,27.19
2023-05-11T13:59:00.135Z,27.27
2023-05-11T14:01:27.958Z,27.47
2023-05-11T14:03:56.756Z,27.80
2023-05-11T14:06:25.739Z,27.85
2023-05-11T14:08:53.913Z,28.10
2023-05-11T14:11:21.770Z,28.31
2023-05-11T14:13:49.407Z,28.14
2023-05-11T14:16:17.015Z,28.04
2023-05-11T14:18:44.731Z,28.69
2023-05-11T14:21:12.471Z,28.74
2023-05-11T14:23:44.977Z,28.57
2023-05-11T14:26:17.627Z,28.82
2023-05-11T14:28:45.154Z,29.52
2023-05-11T14:31:12.965Z,28.88
2023-05-11T14:33:40.443Z,28.82
2023-05-11T14:36:09.272Z,29.46
2023-05-11T14:38:36.790Z,29.09
2023-05-11T14:41:04.097Z,29.17
2023-05-11T14:43:31.686Z,29.70
2023-05-11T14:45:59.151Z,29.79
2023-05-11T14:48:26.498Z,29.42
2023-05-11T14:50:53.926Z,29.29
2023-05-11T14:53:21.278Z,29.30
2023-05-11T14:55:48.808Z,29.56
2023-05-11T14:58:16.178Z,29.74
2023-05-11T15:00:44.053Z,29.45
2023-05-11T15:03:11.467Z,29.77
2023-05-11T15:05:39.454Z,29.92
2023-05-11T15:08:15.507Z,30.09
2023-05-11T15:10:49.835Z,30.30
2023-05-11T15:13:17.080Z,30.13
2023-05-11T15:15:45.296Z,30.86
2023-05-11T15:18:14.471Z,31.24
2023-05-11T15:20:42.733Z,30.93
2023-05-11T15:23:10.490Z,31.32
2023-05-11T15:25:37.917Z,31.12
2023-05-11T15:28:06.490Z,31.30
2023-05-11T15:30:33.827Z,30.69
2023-05-11T15:33:01.324Z,31.05
2023-05-11T15:35:28.637Z,30.94
2023-05-11T15:37:56.298Z,31.03
2023-05-11T15:40:24.640Z,31.23
2023-05-11T15:42:51.803Z,31.38
2023-05-11T15:45:19.342Z,31.18
2023-05-11T15:47:46.965Z,31.68
2023-05-11T15:50:14.635Z,31.52
2023-05-11T15:52:42.094Z,31.90
2023-05-11T15:55:09.516Z,31.83
2023-05-11T15:57:37.220Z,32.13
2023-05-11T16:00:05.093Z,31.77
2023-05-11T16:02:35.145Z,31.38
2023-05-11T16:05:02.903Z,31.67
2023-05-11T16:07:30.626Z,31.40
2023-05-11T16:09:58.644Z,31.63
2023-05-11T16:12:26.861Z,31.63
2023-05-11T16:14:54.944Z,31.92
2023-05-11T16:17:22.702Z,32.37
2023-05-11T16:19:50.435Z,32.09
2023-05-11T16:22:18.742Z,32.15
2023-05-11T16:24:46.857Z,32.18
2023-05-11T16:27:14.576Z,32.32
2023-05-11T16:29:42.778Z,31.64
2023-05-11T16:32:10.700Z,31.60
2023-05-11T16:34:41.367Z,32.03
2023-05-11T16:37:10.308Z,32.10
2023-05-11T16:39:37.676Z,32.16
2023-05-11T16:42:05.130Z,31.98
2023-05-11T16:44:32.462Z,32.28
2023-05-11T16:47:00.674Z,32.04
2023-05-11T16:49:28.547Z,32.34
2023-05-11T16:51:55.997Z,32.34
2023-05-11T16:54:23.457Z,32.59
2023-05-11T16:56:51.077Z,32.65
2023-05-11T16:59:18.550Z,32.80
2023-05-11T17:01:46.495Z,32.99
2023-05-11T17:04:14.141Z,32.86
2023-05-11T17:06:42.067Z,32.84
2023-05-11T17:09:09.637Z,32.91
2023-05-11T17:11:37.390Z,32.82
2023-05-11T17:14:05.032Z,33.13
2023-05-11T17:16:32.518Z,33.56
2023-05-11T17:19:00.110Z,33.53
2023-05-11T17:21:28.916Z,33.52
2023-05-11T17:23:56.364Z,33.72
2023-05-11T17:26:27.506Z,34.13
2023-05-11T17:29:00.413Z,34.36
2023-05-11T17:31:27.883Z,34.26
2023-05-11T17:33:55.625Z,34.41
2023-05-11T17:36:22.975Z,34.70
2023-05-11T17:38:51.519Z,34.60
2023-05-11T17:41:19.033Z,35.04
2023-05-11T17:43:47.946Z,34.60
2023-05-11T17:46:16.373Z,34.84
2023-05-11T17:48:43.882Z,35.14
2023-05-11T17:51:11.167Z,35.29
2023-05-11T17:53:38.556Z,35.35
2023-05-11T17:56:08.268Z,35.59
2023-05-11T17:58:35.748Z,35.89
2023-05-11T18:01:11.397Z,35.96
2023-05-11T18:03:39.624Z,36.04
2023-05-11T18:06:08.315Z,36.25
2023-05-11T18:08:40.629Z,36.36
2023-05-11T18:11:10.538Z,36.13
2023-05-11T18:13:38.378Z,36.58
2023-05-11T18:16:06.840Z,36.61
2023-05-11T18:18:35.017Z,36.61
2023-05-11T18:21:07.033Z,36.68
2023-05-11T18:23:35.021Z,36.72
2023-05-11T18:26:02.769Z,37.11
2023-05-11T18:28:30.960Z,37.20
2023-05-11T18:30:58.796Z,37.39
2023-05-11T18:33:27.061Z,37.18
2023-05-11T18:35:55.535Z,37.58
2023-05-11T18:38:23.612Z,37.39
2023-05-11T18:40:51.855Z,37.83
2023-05-11T18:43:19.851Z,38.05
2023-05-11T18:45:48.071Z,37.94
2023-05-11T18:48:16.158Z,38.10
2023-05-11T18:50:44.083Z,38.23
2023-05-11T18:53:11.811Z,38.41
2023-05-11T18:55:51.998Z,38.75
2023-05-11T18:58:21.511Z,38.57
2023-05-11T19:00:50.114Z,38.65
2023-05-11T19:03:20.115Z,38.89
2023-05-11T19:05:49.704Z,38.63
2023-05-11T19:08:17.675Z,38.79
2023-05-11T19:10:47.456Z,38.97
2023-05-11T19:13:15.265Z,38.88
2023-05-11T19:15:44.356Z,38.82
2023-05-11T19:18:12.480Z,38.90
2023-05-11T19:20:40.336Z,38.93
2023-05-11T19:23:08.470Z,38.85
2023-05-11T19:25:36.660Z,38.83
2023-05-11T19:28:04.505Z,39.15
2023-05-11T19:30:32.695Z,39.21
2023-05-11T19:33:01.077Z,39.21
2023-05-11T19:35:28.709Z,39.40
2023-05-11T19:37:56.418Z,39.13
2023-05-11T19:42:56.094Z,39.49
2023-05-11T19:45:24.438Z,39.34
2023-05-11T19:47:52.272Z,39.68
2023-05-11T19:50:23.526Z,39.77
2023-05-11T19:52:53.269Z,39.95
2023-05-11T19:55:22.021Z,39.89
2023-05-11T19:57:50.053Z,39.86
2023-05-11T20:00:25.344Z,39.91
2023-05-11T20:02:54.506Z,40.19
2023-05-11T20:05:22.626Z,40.40
2023-05-11T20:07:50.783Z,40.40
2023-05-11T20:10:18.979Z,40.35
2023-05-11T20:12:47.095Z,40.68
2023-05-11T20:15:15.526Z,40.54
2023-05-11T20:17:43.589Z,40.70
2023-05-11T20:20:12.681Z,40.66
2023-05-11T20:22:40.877Z,41.36
2023-05-11T20:25:17.538Z,40.74
2023-05-11T20:27:47.208Z,41.56
2023-05-11T20:30:16.169Z,41.30
2023-05-11T20:35:15.848Z,41.69
2023-05-11T20:37:44.156Z,41.68
2023-05-11T20:40:12.471Z,41.92
2023-05-11T20:42:40.825Z,41.94
2023-05-11T20:45:09.097Z,41.75
2023-05-11T20:47:37.650Z,41.88
2023-05-11T20:50:06.886Z,42.24
2023-05-11T20:52:34.754Z,42.33
2023-05-11T20:55:02.855Z,42.56
2023-05-11T20:57:30.866Z,42.24
2023-05-11T21:02:30.140Z,42.71
2023-05-11T21:05:02.736Z,43.06
2023-05-11T21:07:31.063Z,42.99
2023-05-11T21:09:58.763Z,43.17
2023-05-11T21:12:26.932Z,43.17
2023-05-11T21:14:56.859Z,42.93
2023-05-11T21:17:25.317Z,42.97
2023-05-11T21:19:53.455Z,43.30
2023-05-11T21:22:22.028Z,43.27
2023-05-11T21:24:50.091Z,43.57
2023-05-11T21:27:17.865Z,43.13
2023-05-11T21:29:46.408Z,43.64
2023-05-11T21:32:14.506Z,43.26
2023-05-11T21:34:42.757Z,43.40
2023-05-11T21:37:10.608Z,43.72
2023-05-11T21:39:38.265Z,43.90
2023-05-11T21:42:06.918Z,43.70
2023-05-11T21:44:35.020Z,43.53
2023-05-11T21:47:03.616Z,43.69
2023-05-11T21:49:33.348Z,43.48
2023-05-11T21:52:01.039Z,43.51
2023-05-11T21:54:29.059Z,44.16
2023-05-11T21:56:56.800Z,44.11
2023-05-11T21:59:27.075Z,43.95
2023-05-11T22:01:57.692Z,43.82
2023-05-11T22:04:27.642Z,44.29
2023-05-11T22:07:01.075Z,44.40
2023-05-11T22:09:30.243Z,44.63
2023-05-11T22:11:58.464Z,44.33
2023-05-11T22:14:26.405Z,44.88
2023-05-11T22:16:53.769Z,44.68
2023-05-11T22:19:21.230Z,44.62
2023-05-11T22:21:50.292Z,44.84
2023-05-11T22:24:17.587Z,44.71
2023-05-11T22:26:45.044Z,45.07
2023-05-11T22:29:12.475Z,44.91
2023-05-11T22:31:39.870Z,44.61
2023-05-11T22:34:07.362Z,44.69
2023-05-11T22:36:34.659Z,45.23
2023-05-11T22:39:02.452Z,44.96
2023-05-11T22:41:29.708Z,44.99
2023-05-11T22:43:57.086Z,45.19
2023-05-11T22:46:24.459Z,45.46
2023-05-11T22:48:51.971Z,45.67
2023-05-11T22:51:19.393Z,45.51
2023-05-11T22:53:46.746Z,45.88
2023-05-11T22:56:14.442Z,45.75
2023-05-11T22:58:41.844Z,45.31
2023-05-11T23:01:09.331Z,45.52
2023-05-11T23:03:37.080Z,46.06
2023-05-11T23:06:04.698Z,46.01
2023-05-11T23:08:32.485Z,46.29
2023-05-11T23:10:59.953Z,46.22
2023-05-11T23:13:27.791Z,46.39
2023-05-11T23:15:55.382Z,46.00
2023-05-11T23:18:22.868Z,46.68
2023-05-11T23:20:56.151Z,46.48
2023-05-11T23:23:24.297Z,46.13
2023-05-11T23:25:52.189Z,45.99
2023-05-11T23:28:20.050Z,46.21
2023-05-11T23:30:47.518Z,46.21
2023-05-11T23:33:15.340Z,46.14
2023-05-11T23:35:42.727Z,46.23
2023-05-11T23:38:10.255Z,46.53
2023-05-11T23:40:38.823Z,46.43
2023-05-11T23:43:06.317Z,46.64
2023-05-11T23:45:33.554Z,46.76
2023-05-11T23:48:01.033Z,46.66
2023-05-11T23:50:28.405Z,46.98
2023-05-11T23:52:55.681Z,46.62
2023-05-11T23:55:24.461Z,46.98
2023-05-11T23:57:51.789Z,47.02
